Flight Track Log - Related Links

Times and Time Zones

All times are in EDT time to prevent confusion due to time zone crossing. See the N3840U flight status page for this flight to view local times or setup timezone preferences in your user account.

Time Position Orientation Groundspeed Altitude Reporting Facility
EDT Latitude Longitude Course Direction KTS MPH feet Rate Location/Type
Sun 03:14:00 PM 30.6256 -86.4482 North  Level Estimated
Sun 03:15:00 PM 30.6632 -86.4438 North  Level FlightAware Approximate
Sun 03:16:00 PM 30.7007 -86.4393 North  Level FlightAware Approximate
Sun 03:17:00 PM 30.7383 -86.4349 North  Level FlightAware Approximate
Sun 03:18:00 PM 30.7758 -86.4305 North  Level FlightAware Approximate
Sun 03:19:00 PM 30.8134 -86.4266 North  Level Estimated
Sun 03:20:00 PM 30.8510 -86.4222 North  Level FlightAware Approximate
Sun 03:21:00 PM 30.8885 -86.4178 North  Level FlightAware Approximate
Sun 03:22:00 PM 30.9261 -86.4134 North  Level FlightAware Approximate
Sun 03:23:00 PM 30.9636 -86.4090 North  Level FlightAware Approximate
Sun 03:23:41 PM 30.8053 -86.3872 North 153 176 9,100  Level Jacksonville Center
Sun 03:24:00 PM 31.0012 -86.4046 North  Level FlightAware Approximate
Sun 03:24:17 PM 30.8325 -86.3836 North 153 176 9,100  Level Jacksonville Center
Sun 03:25:00 PM 31.0387 -86.4002 North  Level FlightAware Approximate
Sun 03:25:18 PM 30.8742 -86.3828 North 155 178 9,100  Level Jacksonville Center
Sun 03:26:00 PM 31.0763 -86.3958 North  Level FlightAware Approximate
Sun 03:26:06 PM 30.9078 -86.3767 North 158 182 9,100  Level Jacksonville Center
Sun 03:27:00 PM 31.1138 -86.3913 North  Level FlightAware Approximate
Sun 03:27:07 PM 30.9539 -86.3736 North 157 181 9,100  Level Jacksonville Center
Sun 03:28:00 PM 31.1514 -86.3869 North  Level FlightAware Approximate
Sun 03:28:07 PM 31.0000 -86.3678 North 157 181 9,100  Level Jacksonville Center
Sun 03:29:00 PM 31.1889 -86.3825 North  Level FlightAware Approximate
Sun 03:29:08 PM 31.0417 -86.3647 North 156 180 9,100  Level Jacksonville Center
Sun 03:30:09 PM 31.0856 -86.3614 North 156 180 9,100  Level Jacksonville Center
Sun 03:31:09 PM 31.1297 -86.3558 North 154 177 9,100  Level Jacksonville Center
Sun 03:32:10 PM 31.1736 -86.3550 North 151 174 9,100  Level Jacksonville Center
Sun 03:33:10 PM 31.2133 -86.3492 North 152 175 9,100  Level Jacksonville Center
Sun 03:34:11 PM 31.2594 -86.3458 North 154 177 9,100  Level Jacksonville Center
Sun 03:35:12 PM 31.3014 -86.3403 North 155 178 9,100  Level Jacksonville Center
Sun 03:36:12 PM 31.3453 -86.3394 North 156 180 9,100  Level Jacksonville Center
Sun 03:37:07 PM 31.3828 -86.3336 North 155 178 9,100  Level Jacksonville Center
Sun 03:38:07 PM 31.4289 -86.3303 North 154 177 9,100  Level Jacksonville Center
Sun 03:39:08 PM 31.4686 -86.3269 North 152 175 9,100  Level Jacksonville Center
Sun 03:40:08 PM 31.5125 -86.3236 North 151 174 9,100  Level Jacksonville Center
Sun 03:41:09 PM 31.5544 -86.3178 North 154 177 9,100  Level Jacksonville Center
Sun 03:42:10 PM 31.5983 -86.3169 North 153 176 9,100  Level Jacksonville Center
Sun 03:43:10 PM 31.6403 -86.3111 North 154 177 9,100  Level Jacksonville Center
Sun 03:44:11 PM 31.6864 -86.3056 North 155 178 9,100  Level Jacksonville Center
Sun 03:46:00 PM 31.7549 -86.3036 North  Level FlightAware Approximate
Sun 03:53:00 PM 32.0193 -86.2868 North  Level FlightAware Approximate
Sun 03:54:00 PM 32.0569 -86.2831 North  Level FlightAware Approximate
Sun 03:55:00 PM 32.0945 -86.2794 North  Level FlightAware Approximate
Sun 03:56:00 PM 32.1321 -86.2757 North  Level FlightAware Approximate
Sun 03:57:00 PM 32.1697 -86.2720 North  Level FlightAware Approximate
Sun 03:58:00 PM 32.2073 -86.2684 North  Level FlightAware Approximate
Sun 03:59:00 PM 32.2449 -86.2647 North  Level FlightAware Approximate
Sun 04:00:00 PM 32.2826 -86.2610 North  Level FlightAware Approximate
Sun 04:01:00 PM 32.3202 -86.2573 North  Level FlightAware Approximate
Sun 04:02:00 PM 32.3578 -86.2536 North  Level FlightAware Approximate
Sun 04:03:00 PM 32.3954 -86.2499 North  Level FlightAware Approximate
Sun 04:04:00 PM 32.4330 -86.2462 North  Level FlightAware Approximate
Sun 04:05:00 PM 32.4706 -86.2425 North  Level FlightAware Approximate
Sun 04:06:00 PM 32.5082 -86.2388 North  Level FlightAware Approximate
Sun 04:07:00 PM 32.5458 -86.2351 North  Level FlightAware Approximate
Sun 04:08:00 PM 32.5834 -86.2313 North  Level FlightAware Approximate
Sun 04:09:00 PM 32.6210 -86.2276 North  Level FlightAware Approximate
Sun 04:10:00 PM 32.6586 -86.2239 North  Level FlightAware Approximate
Sun 04:11:00 PM 32.6963 -86.2202 North  Level FlightAware Approximate
Sun 04:12:00 PM 32.7339 -86.2165 North  Level FlightAware Approximate
Sun 04:12:57 PM 32.9447 -86.1922 North 160 184 9,100  Level Atlanta Center
Sun 04:13:00 PM 32.7715 -86.2127 North  Level FlightAware Approximate
Sun 04:14:00 PM 32.8091 -86.2090 North  Level FlightAware Approximate
Sun 04:14:10 PM 32.9969 -86.1886 North 160 184 9,100  Level Atlanta Center
Sun 04:15:00 PM 32.8467 -86.2053 North  Level FlightAware Approximate
Sun 04:15:04 PM 33.0408 -86.1822 North 159 183 9,100  Level Atlanta Center
Sun 04:16:00 PM 32.8843 -86.2015 North  Level FlightAware Approximate
Sun 04:16:11 PM 33.0869 -86.1783 North 158 182 9,100  Level Atlanta Center
Sun 04:17:00 PM 32.9219 -86.1978 North  Level FlightAware Approximate
Sun 04:17:12 PM 33.1350 -86.1747 North 159 183 9,100  Level Atlanta Center
Sun 04:18:00 PM 32.9595 -86.1940 North  Level FlightAware Approximate
Sun 04:18:13 PM 33.1789 -86.1683 North 159 183 9,100  Level Atlanta Center
Sun 04:19:19 PM 33.2269 -86.1594 North 163 188 9,100  Level Atlanta Center
Sun 04:20:19 PM 33.2708 -86.1581 North 158 182 9,100  Level Atlanta Center
Sun 04:21:19 PM 33.3150 -86.1517 North 158 182 9,100  Level Atlanta Center
Sun 04:22:19 PM 33.3589 -86.1478 North 158 182 9,100  Level Atlanta Center
Sun 04:23:22 PM 33.4047 -86.1489 359° North 156 180 9,100 -305 Level Atlanta Center
Sun 04:24:17 PM 33.4464 -86.1425 North 166 191 8,500 -632 Descending Atlanta Center
Sun 04:24:19 PM 33.4486 -86.1400 43° Northeast 158 182 8,500 -581 Level Atlanta Center
Sun 04:25:19 PM 33.5008 -86.1364 North 169 194 7,900 -676 Descending Atlanta Center
Sun 04:25:30 PM 33.5092 -86.1367 358° North 189 217 7,700 -667 Descending Atlanta Center
Sun 04:26:13 PM 33.5447 -86.1350 North 186 214 7,300 -612 Descending Atlanta Center
Sun 04:26:19 PM 33.5511 -86.1325 18° North 175 201 7,200 -700 Descending Atlanta Center
Sun 04:27:13 PM 33.5969 -86.1286 North 183 211 6,600 -700 Descending Atlanta Center
Sun 04:27:19 PM 33.6011 -86.1289 357° North 175 201 6,500 -885 Descending Atlanta Center
Sun 04:28:14 PM 33.6450 -86.1250 North 179 206 5,700 -900 Descending Atlanta Center
Sun 04:28:19 PM 33.6514 -86.1200 33° Northeast 180 207 5,600 -277 Descending Atlanta Center
Sun 04:29:19 PM 33.6933 -86.1161 North 180 207 5,400 200 Descending Atlanta Center
Sun 04:30:19 PM 33.7372 -86.1122 North 180 207 6,000 300 Climbing Atlanta Center
Sun 04:31:19 PM 33.7789 -86.1056 North 180 207 6,000  Level Atlanta Center
Sun 04:32:19 PM 33.7875 -86.1058 358° North 180 207 6,000  Level Atlanta Center
Sun 04:33:19 PM 33.7875 -86.1058 270° West 180 207 6,000  Level Atlanta Center
Sun 04:35:00 PM 33.8539 -86.0943 North  Level FlightAware Approximate
Sun 04:42:00 PM 33.9667 -86.0833 North  Level FlightAware Approximate
Sun 04:43:00 PM 33.9726 -86.0891 North  Level Estimated
Sun 04:44:00 PM 33.9726 -86.0891 North  Level Estimated
Sun 04:45:00 PM 33.9726 -86.0891 North  Level Estimated
Sun 04:46:00 PM 33.9726 -86.0891 North  Level Estimated
Sun 04:47:00 PM 33.9726 -86.0891 North  Level Estimated

Login

Don't have an account? Register now (free) for customized features, flight alerts, and more!